createdAt,value
2019-03-18T00:01:40.907Z,4.17
2019-03-18T00:04:28.114Z,3.98
2019-03-18T00:07:15.226Z,4.07
2019-03-18T00:10:03.636Z,4.13
2019-03-18T00:12:53.177Z,4.19
2019-03-18T00:15:39.834Z,4.10
2019-03-18T00:18:29.322Z,4.20
2019-03-18T00:21:18.943Z,4.09
2019-03-18T00:24:05.644Z,4.11
2019-03-18T00:26:52.539Z,4.01
2019-03-18T00:29:39.423Z,3.93
2019-03-18T00:32:26.141Z,4.05
2019-03-18T00:35:13.619Z,3.89
2019-03-18T00:37:59.847Z,3.93
2019-03-18T00:40:46.707Z,4.01
2019-03-18T00:43:34.071Z,4.05
2019-03-18T00:46:20.730Z,4.15
2019-03-18T00:49:07.607Z,4.00
2019-03-18T00:51:54.899Z,3.97
2019-03-18T00:54:42.451Z,3.98
2019-03-18T00:57:29.111Z,3.95
2019-03-18T01:00:16.202Z,3.95
2019-03-18T01:03:03.188Z,4.01
2019-03-18T01:05:49.861Z,4.05
2019-03-18T01:08:36.859Z,3.87
2019-03-18T01:11:23.591Z,3.87
2019-03-18T01:14:10.234Z,3.98
2019-03-18T01:16:58.575Z,3.85
2019-03-18T01:19:45.191Z,3.85
2019-03-18T01:22:31.896Z,3.98
2019-03-18T01:25:19.327Z,3.94
2019-03-18T01:28:05.997Z,3.84
2019-03-18T01:30:52.601Z,3.98
2019-03-18T01:33:39.651Z,3.94
2019-03-18T01:36:26.379Z,3.99
2019-03-18T01:39:13.000Z,4.12
2019-03-18T01:42:03.633Z,4.27
2019-03-18T01:44:50.335Z,4.13
2019-03-18T01:47:37.255Z,4.35
2019-03-18T01:50:26.066Z,4.25
2019-03-18T01:53:12.723Z,4.20
2019-03-18T01:55:59.667Z,4.20
2019-03-18T01:58:46.486Z,4.20
2019-03-18T02:01:33.309Z,4.18
2019-03-18T02:04:20.606Z,4.06
2019-03-18T02:07:07.284Z,4.29
2019-03-18T02:09:53.448Z,4.17
2019-03-18T02:12:41.799Z,4.25
2019-03-18T02:15:28.640Z,4.08
2019-03-18T02:18:15.398Z,4.38
2019-03-18T02:21:02.204Z,4.26
2019-03-18T02:23:49.581Z,4.31
2019-03-18T02:26:36.093Z,4.42
2019-03-18T02:29:23.193Z,4.41
2019-03-18T02:32:10.913Z,4.41
2019-03-18T02:34:57.037Z,4.45
2019-03-18T02:37:43.426Z,4.52
2019-03-18T02:40:30.781Z,4.52
2019-03-18T02:43:17.734Z,4.52
2019-03-18T02:46:10.446Z,4.59
2019-03-18T02:48:53.430Z,4.62
2019-03-18T02:51:40.856Z,4.52
2019-03-18T02:54:27.910Z,4.69
2019-03-18T02:57:14.868Z,4.46
2019-03-18T03:00:01.722Z,4.54
2019-03-18T03:02:49.309Z,4.54
2019-03-18T03:05:35.962Z,4.44
2019-03-18T03:08:22.691Z,4.44
2019-03-18T03:11:11.285Z,4.47
2019-03-18T03:13:58.608Z,4.36
2019-03-18T03:16:45.101Z,4.40
2019-03-18T03:19:32.523Z,4.33
2019-03-18T03:22:18.918Z,4.42
2019-03-18T03:25:06.345Z,4.42
2019-03-18T03:27:54.868Z,4.45
2019-03-18T03:30:41.416Z,4.48
2019-03-18T03:33:28.274Z,4.35
2019-03-18T03:36:15.672Z,4.53
2019-03-18T03:39:02.252Z,4.55
2019-03-18T03:41:49.678Z,4.52
2019-03-18T03:44:36.508Z,4.56
2019-03-18T03:47:23.523Z,4.45
2019-03-18T03:50:11.022Z,4.46
2019-03-18T03:52:57.966Z,4.14
2019-03-18T03:55:45.074Z,4.43
2019-03-18T03:58:31.912Z,4.48
2019-03-18T04:01:18.703Z,4.41
2019-03-18T04:04:05.844Z,4.58
2019-03-18T04:06:52.329Z,4.51
2019-03-18T04:09:39.642Z,4.50
2019-03-18T04:12:26.242Z,4.41
2019-03-18T04:15:13.173Z,4.44
2019-03-18T04:18:00.403Z,4.53
2019-03-18T04:20:47.294Z,4.44
2019-03-18T04:23:33.888Z,4.36
2019-03-18T04:26:21.371Z,4.39
2019-03-18T04:29:08.163Z,4.39
2019-03-18T04:31:55.699Z,4.45
2019-03-18T04:34:43.998Z,4.55
2019-03-18T04:37:30.536Z,4.62
2019-03-18T04:40:17.677Z,4.52
2019-03-18T04:43:04.696Z,4.44
2019-03-18T04:45:51.317Z,4.52
2019-03-18T04:48:37.693Z,4.46
2019-03-18T04:51:24.801Z,4.50
2019-03-18T04:54:11.007Z,4.53
2019-03-18T04:56:58.097Z,4.37
2019-03-18T04:59:46.155Z,4.26
2019-03-18T05:02:32.468Z,4.21
2019-03-18T05:05:19.320Z,4.14
2019-03-18T05:08:06.277Z,4.33
2019-03-18T05:10:52.809Z,4.46
2019-03-18T05:13:38.943Z,4.31
2019-03-18T05:16:26.002Z,4.28
2019-03-18T05:19:12.624Z,4.35
2019-03-18T05:21:59.881Z,4.39
2019-03-18T05:24:46.352Z,4.55
2019-03-18T05:27:32.985Z,4.23
2019-03-18T05:30:20.169Z,4.44
2019-03-18T05:33:09.032Z,4.44
2019-03-18T05:35:55.667Z,4.60
2019-03-18T05:38:42.676Z,4.64
2019-03-18T05:41:30.025Z,4.55
2019-03-18T05:44:16.680Z,4.32
2019-03-18T05:47:03.424Z,4.54
2019-03-18T05:49:50.564Z,4.55
2019-03-18T05:52:36.945Z,4.36
2019-03-18T05:55:24.171Z,4.35
2019-03-18T05:58:10.901Z,4.35
2019-03-18T06:00:57.581Z,4.63
2019-03-18T06:03:44.577Z,4.49
2019-03-18T06:06:31.237Z,4.57
2019-03-18T06:09:17.652Z,4.65
2019-03-18T06:12:04.578Z,4.65
2019-03-18T06:14:53.976Z,4.74
2019-03-18T06:17:51.652Z,4.85
2019-03-18T06:20:31.097Z,5.01
2019-03-18T06:23:17.405Z,4.99
2019-03-18T06:26:05.351Z,4.98
2019-03-18T06:28:52.725Z,4.72
2019-03-18T06:31:39.841Z,4.70
2019-03-18T06:34:31.685Z,4.79
2019-03-18T06:37:24.205Z,4.99
2019-03-18T06:40:13.951Z,5.01
2019-03-18T06:43:17.229Z,4.95
2019-03-18T06:46:05.045Z,4.93
2019-03-18T06:48:51.581Z,4.90
2019-03-18T06:51:38.456Z,5.08
2019-03-18T06:54:25.127Z,4.87
2019-03-18T06:57:11.793Z,4.96
2019-03-18T06:59:58.610Z,5.31
2019-03-18T07:02:45.020Z,5.34
2019-03-18T07:05:34.373Z,5.17
2019-03-18T07:08:21.975Z,5.27
2019-03-18T07:11:10.766Z,5.15
2019-03-18T07:13:57.225Z,5.26
2019-03-18T07:16:44.310Z,5.06
2019-03-18T07:19:31.510Z,5.25
2019-03-18T07:22:18.254Z,5.06
2019-03-18T07:25:05.813Z,5.30
2019-03-18T07:27:52.643Z,5.31
2019-03-18T07:30:39.541Z,5.49
2019-03-18T07:33:26.782Z,5.88
2019-03-18T07:36:13.313Z,6.17
2019-03-18T07:39:00.217Z,5.90
2019-03-18T07:41:47.400Z,5.47
2019-03-18T07:44:33.637Z,5.70
2019-03-18T07:47:24.626Z,5.98
2019-03-18T07:50:11.079Z,5.92
2019-03-18T07:52:58.358Z,5.94
2019-03-18T07:55:44.920Z,6.18
2019-03-18T07:58:31.562Z,6.76
2019-03-18T08:01:19.994Z,8.26
2019-03-18T08:04:06.667Z,8.00
2019-03-18T08:06:56.114Z,9.09
2019-03-18T08:09:42.882Z,8.15
2019-03-18T08:12:31.407Z,8.40
2019-03-18T08:15:21.272Z,8.13
2019-03-18T08:18:08.942Z,8.27
2019-03-18T08:20:55.881Z,9.48
2019-03-18T08:23:43.119Z,8.97
2019-03-18T08:26:30.062Z,8.10
2019-03-18T08:29:16.661Z,7.16
2019-03-18T08:32:03.694Z,7.01
2019-03-18T08:34:50.594Z,7.07
2019-03-18T08:37:37.413Z,6.85
2019-03-18T08:40:24.242Z,7.57
2019-03-18T08:43:11.259Z,7.59
2019-03-18T08:45:57.634Z,7.12
2019-03-18T08:48:55.425Z,6.84
2019-03-18T08:51:35.819Z,7.05
2019-03-18T08:54:22.274Z,6.94
2019-03-18T08:57:09.213Z,6.93
2019-03-18T08:59:56.629Z,7.55
2019-03-18T09:02:43.433Z,7.42
2019-03-18T09:05:30.171Z,7.20
2019-03-18T09:08:19.603Z,7.71
2019-03-18T09:11:09.105Z,7.63
2019-03-18T09:13:58.605Z,7.75
2019-03-18T09:16:47.793Z,8.63
2019-03-18T09:19:34.114Z,10.00
2019-03-18T09:22:20.772Z,9.49
2019-03-18T09:25:09.012Z,10.62
2019-03-18T09:27:55.462Z,9.84
2019-03-18T09:30:42.606Z,8.59
2019-03-18T09:33:32.357Z,8.48
2019-03-18T09:36:19.178Z,8.97
2019-03-18T09:39:07.223Z,8.04
2019-03-18T09:41:55.395Z,7.66
2019-03-18T09:44:48.025Z,7.80
2019-03-18T09:47:34.886Z,8.14
2019-03-18T09:50:22.634Z,9.28
2019-03-18T09:53:09.714Z,8.25
2019-03-18T09:55:56.498Z,7.84
2019-03-18T09:58:43.022Z,7.96
2019-03-18T10:01:31.282Z,8.91
2019-03-18T10:04:20.351Z,8.32
2019-03-18T10:07:08.922Z,8.79
2019-03-18T10:09:55.831Z,9.26
2019-03-18T10:12:42.580Z,9.98
2019-03-18T10:15:29.434Z,8.04
2019-03-18T10:18:16.259Z,8.14
2019-03-18T10:21:03.167Z,8.58
2019-03-18T10:23:50.435Z,8.08
2019-03-18T10:26:36.899Z,9.59
2019-03-18T10:29:23.798Z,10.28
2019-03-18T10:32:13.186Z,9.64
2019-03-18T10:35:02.986Z,11.54
2019-03-18T10:37:50.440Z,11.17
2019-03-18T10:40:37.046Z,10.88
2019-03-18T10:43:24.231Z,11.18
2019-03-18T10:46:10.951Z,10.64
2019-03-18T10:49:00.423Z,10.87
2019-03-18T10:51:49.764Z,11.18
2019-03-18T10:54:42.823Z,10.95
2019-03-18T10:57:31.087Z,10.13
2019-03-18T11:00:17.885Z,11.49
2019-03-18T11:03:04.720Z,11.30
2019-03-18T11:05:51.766Z,12.16
2019-03-18T11:08:38.566Z,12.80
2019-03-18T11:11:24.981Z,10.75
2019-03-18T11:14:14.417Z,11.09
2019-03-18T11:17:01.110Z,10.87
2019-03-18T11:19:57.831Z,11.54
2019-03-18T11:22:35.484Z,12.30
2019-03-18T11:25:22.679Z,11.49
2019-03-18T11:28:09.294Z,10.34
2019-03-18T11:30:56.630Z,10.11
2019-03-18T11:33:43.749Z,9.78
2019-03-18T11:36:31.599Z,8.94
2019-03-18T11:39:18.908Z,8.86
2019-03-18T11:42:12.109Z,8.72
2019-03-18T11:44:59.002Z,8.63
2019-03-18T11:47:46.355Z,9.02
2019-03-18T11:50:35.995Z,9.09
2019-03-18T11:53:22.666Z,8.73
2019-03-18T11:56:11.786Z,8.69
2019-03-18T11:58:58.840Z,8.85
2019-03-18T12:01:45.779Z,8.62
2019-03-18T12:04:32.941Z,8.27
2019-03-18T12:07:20.418Z,8.07
2019-03-18T12:10:11.769Z,8.21
2019-03-18T12:13:03.992Z,7.47
2019-03-18T12:15:53.120Z,7.41
2019-03-18T12:18:40.189Z,7.47
2019-03-18T12:21:28.941Z,7.33
2019-03-18T12:24:15.460Z,7.20
2019-03-18T12:27:06.614Z,7.40
2019-03-18T12:29:56.009Z,7.30
2019-03-18T12:32:45.377Z,7.32
2019-03-18T12:35:33.968Z,7.85
2019-03-18T12:38:20.344Z,8.72
2019-03-18T12:41:06.897Z,8.58
2019-03-18T12:43:56.903Z,9.05
2019-03-18T12:46:49.005Z,8.85
2019-03-18T12:49:36.153Z,8.75
2019-03-18T12:52:23.138Z,8.40
2019-03-18T12:55:14.038Z,8.51
2019-03-18T12:58:01.129Z,8.80
2019-03-18T13:00:47.851Z,10.47
2019-03-18T13:03:35.981Z,11.16
2019-03-18T13:06:25.610Z,10.30
2019-03-18T13:09:13.366Z,10.94
2019-03-18T13:12:00.028Z,11.59
2019-03-18T13:14:46.499Z,10.95
2019-03-18T13:17:33.331Z,10.78
2019-03-18T13:20:23.007Z,11.39
2019-03-18T13:23:11.792Z,11.91
2019-03-18T13:25:58.164Z,11.01
2019-03-18T13:28:48.523Z,10.95
2019-03-18T13:31:37.414Z,12.59
2019-03-18T13:34:25.846Z,11.59
2019-03-18T13:37:12.642Z,9.73
2019-03-18T13:39:59.194Z,10.13
2019-03-18T13:42:46.160Z,11.29
2019-03-18T13:45:33.266Z,11.49
2019-03-18T13:48:19.795Z,11.20
2019-03-18T13:51:21.119Z,11.60
2019-03-18T13:54:06.152Z,12.99
2019-03-18T13:56:52.452Z,12.78
2019-03-18T13:59:41.969Z,9.81
2019-03-18T14:02:29.778Z,9.01
2019-03-18T21:19:45.008Z,4.53
2019-03-18T21:22:31.718Z,4.48
2019-03-18T21:25:17.523Z,4.34
2019-03-18T21:28:03.717Z,4.19
2019-03-18T21:30:49.634Z,4.24
2019-03-18T21:33:36.120Z,4.12
2019-03-18T21:36:36.946Z,4.07
2019-03-18T21:39:10.805Z,3.92
2019-03-18T21:41:56.839Z,3.89
2019-03-18T21:44:43.981Z,3.71
2019-03-18T21:47:31.001Z,3.71
2019-03-18T21:50:17.177Z,3.49
2019-03-18T21:53:03.634Z,3.23
2019-03-18T21:55:49.478Z,3.34
2019-03-18T21:58:35.455Z,3.39
2019-03-18T22:01:22.381Z,3.01
2019-03-18T22:04:08.681Z,2.97
2019-03-18T22:06:55.082Z,3.43
2019-03-18T22:09:41.790Z,3.39
2019-03-18T22:12:28.047Z,3.39
2019-03-18T22:15:14.108Z,3.46
2019-03-18T22:18:00.583Z,3.15
2019-03-18T22:20:46.982Z,3.15
2019-03-18T22:23:32.875Z,2.96
2019-03-18T22:26:19.325Z,2.96
2019-03-18T22:29:05.373Z,3.02
2019-03-18T22:31:52.094Z,3.03
2019-03-18T22:34:38.550Z,3.03
2019-03-18T22:37:25.721Z,3.17
2019-03-18T22:40:13.879Z,3.01
2019-03-18T22:43:00.074Z,2.98
2019-03-18T22:45:46.500Z,3.02
2019-03-18T22:48:33.086Z,3.06
2019-03-18T22:51:19.792Z,3.09
2019-03-18T22:54:06.191Z,2.92
2019-03-18T22:56:52.414Z,2.92
2019-03-18T22:59:38.784Z,2.75
2019-03-18T23:02:25.011Z,2.75
2019-03-18T23:05:15.698Z,2.85
2019-03-18T23:08:02.306Z,2.73
2019-03-18T23:10:48.148Z,2.80
2019-03-18T23:13:34.598Z,2.80
2019-03-18T23:16:20.705Z,2.65
2019-03-18T23:19:06.998Z,2.61
2019-03-18T23:21:53.412Z,2.61
2019-03-18T23:24:40.522Z,2.60
2019-03-18T23:27:27.955Z,2.52
2019-03-18T23:30:14.497Z,2.12
2019-03-18T23:33:01.062Z,2.25
2019-03-18T23:35:48.266Z,2.43
2019-03-18T23:38:34.276Z,2.55
2019-03-18T23:41:20.886Z,2.48
2019-03-18T23:44:07.147Z,2.48
2019-03-18T23:46:53.589Z,2.33
2019-03-18T23:49:39.634Z,2.33
2019-03-18T23:52:26.237Z,2.00
2019-03-18T23:55:18.790Z,2.20
2019-03-18T23:58:00.468Z,2.20
